Time;durP1;ratioP1;P1;durP2;ratioP2;P2;SDS_P1;SDS_P2;PMS_P1;PMS_P2;Temp;Humidity;BMP_temperature;BMP_pressure;BME280_temperature;BME280_humidity;BME280_pressure;Samples;Min_cycle;Max_cycle;Signal;HPM_P1;HPM_P2
2023/04/17 00:00:13;;;;;;;16.17;14.87;;;;;;;9.50;93.36;101412.28;5011549;28;20210;-81
2023/04/17 00:02:39;;;;;;;15.73;14.37;;;;;;;9.49;93.30;101408.81;5011528;28;20259;-82
2023/04/17 00:05:07;;;;;;;15.93;14.70;;;;;;;9.49;93.46;101414.03;5011247;28;20242;-81
2023/04/17 00:07:33;;;;;;;15.73;14.03;;;;;;;9.51;92.13;101424.44;5011630;28;20249;-81
2023/04/17 00:10:01;;;;;;;17.80;14.27;;;;;;;9.50;91.72;101448.75;5011460;28;20625;-82
2023/04/17 00:12:27;;;;;;;15.60;14.20;;;;;;;9.42;92.25;101446.13;5012003;28;20211;-81
2023/04/17 00:14:54;;;;;;;15.30;14.00;;;;;;;9.44;92.41;101447.00;5015186;28;20257;-81
2023/04/17 00:17:20;;;;;;;15.47;14.23;;;;;;;9.44;91.90;101451.38;5014961;28;20262;-83
2023/04/17 00:19:46;;;;;;;16.07;14.57;;;;;;;9.41;92.11;101447.00;5014625;28;20211;-82
2023/04/17 00:22:13;;;;;;;15.77;14.47;;;;;;;9.37;92.49;101445.25;5014962;28;20241;-82
2023/04/17 00:24:39;;;;;;;16.13;14.67;;;;;;;9.35;93.51;101428.75;5014809;28;20261;-82
2023/04/17 00:27:07;;;;;;;16.87;15.40;;;;;;;9.33;92.91;101433.94;5014946;28;20227;-82
2023/04/17 00:29:33;;;;;;;16.17;14.73;;;;;;;9.34;92.08;101445.25;5014570;28;20231;-81
2023/04/17 00:31:59;;;;;;;16.23;14.93;;;;;;;9.32;92.27;101454.81;5014906;28;20740;-82
2023/04/17 00:34:26;;;;;;;16.27;14.97;;;;;;;9.32;92.16;101445.25;5014660;28;20213;-83
2023/04/17 00:36:52;;;;;;;16.13;14.77;;;;;;;9.25;92.54;101435.66;5015006;28;20216;-81
2023/04/17 00:39:18;;;;;;;16.27;14.87;;;;;;;9.24;92.43;101438.28;5014466;28;20224;-81
2023/04/17 00:41:45;;;;;;;18.40;14.77;;;;;;;9.20;93.17;101428.72;5014647;28;20211;-82
2023/04/17 00:44:12;;;;;;;15.27;13.87;;;;;;;9.18;93.09;101426.13;5014798;28;20212;-81
2023/04/17 00:46:39;;;;;;;15.43;14.23;;;;;;;9.20;92.79;101428.72;5014347;28;20767;-81
2023/04/17 00:49:06;;;;;;;14.50;13.50;;;;;;;9.16;91.83;101443.47;5014581;28;20231;-81
2023/04/17 00:51:34;;;;;;;15.80;14.23;;;;;;;9.17;91.63;101453.00;5014437;28;20222;-81
2023/04/17 00:54:00;;;;;;;16.13;14.83;;;;;;;9.17;91.44;101466.03;5014483;28;20262;-81
2023/04/17 00:56:28;;;;;;;16.00;14.63;;;;;;;9.13;91.91;101469.50;5014493;28;20241;-81
2023/04/17 00:58:55;;;;;;;16.63;15.27;;;;;;;9.09;91.67;101460.78;5014247;28;20721;-81
2023/04/17 01:01:23;;;;;;;15.87;14.53;;;;;;;9.04;92.39;101457.31;5014228;28;20215;-81
2023/04/17 01:03:50;;;;;;;16.57;14.93;;;;;;;9.03;91.81;101463.38;5014389;28;20755;-82
2023/04/17 01:06:17;;;;;;;15.47;14.23;;;;;;;9.00;91.80;101459.88;5014258;28;20205;-82
2023/04/17 01:08:44;;;;;;;16.30;14.90;;;;;;;8.95;92.47;101457.28;5014359;28;20297;-83
2023/04/17 01:11:11;;;;;;;16.77;14.97;;;;;;;8.90;92.47;101446.84;5014230;28;20211;-82
2023/04/17 01:13:45;;;;;;;16.03;14.70;;;;;;;8.89;92.78;101439.88;5014394;28;20212;-82
2023/04/17 01:16:11;;;;;;;17.23;15.73;;;;;;;8.83;92.63;101441.59;5014268;28;20676;-82
2023/04/17 01:18:39;;;;;;;15.40;14.20;;;;;;;8.80;93.75;101420.75;5013868;28;20736;-82
2023/04/17 01:21:05;;;;;;;16.23;14.83;;;;;;;8.75;94.06;101405.13;5014122;28;20615;-82
2023/04/17 01:23:44;;;;;;;16.77;15.47;;;;;;;8.78;93.97;101412.06;5013582;28;20626;-82
2023/04/17 01:26:16;;;;;;;17.53;16.10;;;;;;;8.75;94.63;101398.19;5014123;28;20260;-81
2023/04/17 01:28:43;;;;;;;16.57;15.13;;;;;;;8.77;94.00;101392.13;5014361;28;20319;-82
2023/04/17 01:31:14;;;;;;;17.10;15.80;;;;;;;8.71;94.02;101401.63;5014355;28;20207;-82
2023/04/17 01:33:40;;;;;;;17.07;15.77;;;;;;;8.65;94.30;101404.22;5014244;28;20217;-83
2023/04/17 01:36:07;;;;;;;17.77;16.37;;;;;;;8.62;94.32;101398.13;5014864;28;20735;-83
2023/04/17 01:38:33;;;;;;;17.73;16.20;;;;;;;8.60;94.19;101392.91;5014071;28;20231;-82
2023/04/17 01:41:07;;;;;;;17.47;15.93;;;;;;;8.67;94.75;101393.81;5014130;28;20207;-82
2023/04/17 01:43:34;;;;;;;16.60;15.00;;;;;;;8.64;95.29;101379.06;5014397;28;20593;-83
2023/04/17 01:46:01;;;;;;;17.40;16.07;;;;;;;8.68;95.30;101370.41;5014486;28;20242;-83
2023/04/17 01:48:27;;;;;;;16.67;15.27;;;;;;;8.68;95.10;101370.41;5013738;28;20283;-82
2023/04/17 01:50:53;;;;;;;16.50;15.20;;;;;;;8.71;95.11;101380.81;5014335;28;20206;-83
2023/04/17 01:53:20;;;;;;;16.13;14.83;;;;;;;8.68;94.90;101387.72;5013451;28;20207;-83
2023/04/17 01:55:46;;;;;;;17.37;15.97;;;;;;;8.66;94.13;101410.28;5013768;28;20218;-83
2023/04/17 01:58:13;;;;;;;16.60;15.17;;;;;;;8.57;94.76;101407.66;5014027;28;20285;-83
2023/04/17 02:00:40;;;;;;;16.37;15.07;;;;;;;8.60;95.15;101398.09;5013875;28;20216;-82
2023/04/17 02:03:07;;;;;;;16.87;15.47;;;;;;;8.55;95.00;101390.28;5014013;28;20226;-82
2023/04/17 02:05:33;;;;;;;16.70;15.43;;;;;;;8.51;95.10;101385.06;5013916;28;20211;-82
2023/04/17 02:07:59;;;;;;;17.20;15.70;;;;;;;8.52;95.33;101392.91;5012642;28;20721;-81
2023/04/17 02:10:26;;;;;;;16.23;15.03;;;;;;;8.55;95.20;101387.69;5013148;28;20266;-81
2023/04/17 02:12:52;;;;;;;17.03;15.73;;;;;;;8.58;94.78;101391.16;5013744;28;20211;-82
2023/04/17 02:15:18;;;;;;;17.07;15.80;;;;;;;8.52;95.13;101392.91;5013604;28;20298;-82
2023/04/17 02:17:46;;;;;;;17.50;16.10;;;;;;;8.59;94.69;101398.13;5013379;28;20697;-82
2023/04/17 02:20:13;;;;;;;17.13;15.73;;;;;;;8.57;94.83;101407.66;5013140;28;20216;-81
2023/04/17 02:22:39;;;;;;;16.53;14.93;;;;;;;8.55;94.90;101408.50;5013196;28;20209;-82
2023/04/17 02:25:05;;;;;;;17.17;15.87;;;;;;;8.55;94.68;101400.69;5013258;28;20210;-79
2023/04/17 02:27:32;;;;;;;17.60;16.20;;;;;;;8.47;94.74;101406.75;5013255;28;20229;-81
2023/04/17 02:29:58;;;;;;;16.30;14.93;;;;;;;8.50;95.11;101407.63;5013214;28;20204;-82
2023/04/17 02:32:25;;;;;;;16.63;15.23;;;;;;;8.53;95.28;101406.75;5013171;28;20267;-81
2023/04/17 02:34:53;;;;;;;17.60;16.00;;;;;;;8.48;94.69;101405.84;5012772;28;20206;-81
2023/04/17 02:37:19;;;;;;;17.53;16.10;;;;;;;8.49;95.37;101400.66;5012490;28;20215;-83
2023/04/17 02:39:46;;;;;;;17.17;15.83;;;;;;;8.46;94.89;101399.78;5013281;28;20306;-81
2023/04/17 02:42:12;;;;;;;18.03;16.33;;;;;;;8.51;94.99;101404.16;5013466;28;20752;-81
2023/04/17 02:44:39;;;;;;;16.40;15.20;;;;;;;8.49;94.37;101412.81;5013001;28;20232;-82
2023/04/17 02:47:05;;;;;;;16.40;14.90;;;;;;;8.48;94.50;101413.66;5012755;28;20888;-81
2023/04/17 02:49:32;;;;;;;16.33;15.13;;;;;;;8.41;94.78;101415.38;5012887;28;20269;-83
2023/04/17 02:51:59;;;;;;;16.67;15.27;;;;;;;8.43;95.19;101412.78;5012365;28;20202;-82
2023/04/17 02:54:26;;;;;;;16.17;14.87;;;;;;;8.36;95.03;101398.81;5012535;28;20209;-82
2023/04/17 02:56:57;;;;;;;15.20;14.03;;;;;;;8.38;95.12;101404.91;5012690;28;20215;-82
2023/04/17 02:59:23;;;;;;;16.80;15.40;;;;;;;8.41;94.85;101407.56;5012534;28;20726;-81
2023/04/17 03:01:49;;;;;;;19.80;16.37;;;;;;;8.42;94.32;101411.91;5012666;28;20206;-81
2023/04/17 03:04:16;;;;;;;16.87;15.57;;;;;;;8.41;94.47;101417.06;5012937;28;20209;-81
2023/04/17 03:06:42;;;;;;;17.50;16.03;;;;;;;8.40;94.40;101420.53;5012774;28;20208;-82
2023/04/17 03:09:11;;;;;;;16.20;15.00;;;;;;;8.40;94.02;101430.94;5012222;28;20615;-81
2023/04/17 03:11:37;;;;;;;17.27;15.97;;;;;;;8.37;93.98;101437.00;5012929;28;20212;-80
2023/04/17 03:14:03;;;;;;;16.97;15.43;;;;;;;8.33;94.32;101436.09;5012827;28;20254;-81
2023/04/17 03:16:30;;;;;;;17.50;15.87;;;;;;;8.35;94.44;101436.97;5012540;28;20629;-81
2023/04/17 03:18:56;;;;;;;17.53;16.13;;;;;;;8.28;94.70;101418.72;5012008;28;20282;-81
2023/04/17 03:21:22;;;;;;;18.30;16.90;;;;;;;8.27;94.95;101423.06;5012802;28;20208;-82
2023/04/17 03:23:48;;;;;;;17.33;15.83;;;;;;;8.29;94.67;101430.88;5012536;28;20675;-81
2023/04/17 03:26:16;;;;;;;17.90;16.30;;;;;;;8.25;94.02;101436.94;5012733;28;20206;-80
2023/04/17 03:28:42;;;;;;;17.63;15.63;;;;;;;8.22;93.95;101449.91;5012242;28;20226;-81
2023/04/17 03:31:09;;;;;;;17.80;16.33;;;;;;;8.21;93.44;101453.38;5012850;28;20237;-81
2023/04/17 03:33:36;;;;;;;18.60;16.87;;;;;;;8.18;92.88;101468.94;5012520;28;20210;-83
2023/04/17 03:36:03;;;;;;;17.97;16.53;;;;;;;8.11;93.21;101465.44;5012895;28;20249;-83
2023/04/17 03:38:29;;;;;;;18.43;16.97;;;;;;;8.00;94.04;101467.94;5012293;28;20250;-83
2023/04/17 03:40:55;;;;;;;18.03;16.30;;;;;;;8.04;93.61;101456.69;5012342;28;20207;-81
2023/04/17 03:43:23;;;;;;;18.80;16.90;;;;;;;8.01;94.21;101456.69;5013583;28;20205;-81
2023/04/17 03:45:49;;;;;;;18.03;16.53;;;;;;;7.96;94.71;101461.81;5013535;28;20630;-81
2023/04/17 03:48:16;;;;;;;17.47;15.97;;;;;;;7.96;94.01;101460.97;5016014;28;20254;-82
2023/04/17 03:50:42;;;;;;;17.90;16.47;;;;;;;7.88;94.83;101442.69;5017839;28;20212;-81
2023/04/17 03:53:08;;;;;;;17.80;16.40;;;;;;;7.82;95.05;101437.44;5017215;28;20199;-82
2023/04/17 03:55:35;;;;;;;18.60;17.07;;;;;;;7.88;95.71;101432.31;5017279;28;20269;-81
2023/04/17 03:58:01;;;;;;;18.43;16.83;;;;;;;7.84;95.51;101430.53;5017194;28;20703;-81
2023/04/17 04:00:30;;;;;;;19.03;17.17;;;;;;;7.83;95.50;101426.22;5017317;28;20566;-83
2023/04/17 04:02:56;;;;;;;18.00;16.43;;;;;;;7.81;95.07;101430.53;5017915;28;20216;-83
2023/04/17 04:05:23;;;;;;;18.03;16.53;;;;;;;7.78;95.42;101427.88;5018304;28;20207;-83
2023/04/17 04:07:49;;;;;;;18.27;16.73;;;;;;;7.84;95.10;101430.53;5017690;28;20230;-81
2023/04/17 04:10:15;;;;;;;17.30;15.90;;;;;;;7.79;94.74;101437.44;5017548;28;20219;-82
2023/04/17 04:12:42;;;;;;;17.47;16.10;;;;;;;7.76;94.98;101445.19;5017644;28;20210;-82
2023/04/17 04:15:09;;;;;;;17.43;16.03;;;;;;;7.78;94.96;101446.09;5017915;28;20688;-83
2023/04/17 04:17:37;;;;;;;17.87;16.47;;;;;;;7.72;95.21;101453.81;5017917;28;20199;-84
2023/04/17 04:20:04;;;;;;;19.43;17.47;;;;;;;7.70;95.48;101447.75;5017719;28;20204;-85
2023/04/17 04:22:30;;;;;;;17.63;16.33;;;;;;;7.74;95.30;101442.59;5016678;28;20264;-83
2023/04/17 04:24:56;;;;;;;17.70;16.20;;;;;;;7.76;95.48;101438.25;5017111;28;20283;-82
2023/04/17 04:27:23;;;;;;;18.93;17.43;;;;;;;7.78;95.86;101432.22;5016905;28;20206;-80
2023/04/17 04:29:49;;;;;;;18.30;16.90;;;;;;;7.81;95.61;101430.53;5016821;28;20202;-84
2023/04/17 04:32:15;;;;;;;19.13;17.10;;;;;;;7.83;95.35;101441.81;5017548;28;20207;-83
2023/04/17 04:34:44;;;;;;;19.83;18.13;;;;;;;7.81;95.46;101433.13;5017142;28;20629;-82
2023/04/17 04:37:14;;;;;;;17.03;15.73;;;;;;;7.74;95.81;101439.13;5017584;28;20207;-82
2023/04/17 04:39:41;;;;;;;17.67;16.20;;;;;;;7.79;95.78;101441.75;5017391;28;20235;-83
2023/04/17 04:42:08;;;;;;;16.80;15.30;;;;;;;7.82;95.86;101447.00;5017453;28;20211;-82
2023/04/17 04:44:35;;;;;;;18.17;16.30;;;;;;;7.82;95.88;101442.66;5017042;28;20206;-81
2023/04/17 04:47:01;;;;;;;17.33;15.70;;;;;;;7.87;95.23;101442.69;5016060;28;20211;-82
2023/04/17 04:49:27;;;;;;;16.00;14.70;;;;;;;7.83;95.10;101451.31;5015549;28;20231;-82
2023/04/17 04:51:55;;;;;;;16.30;15.00;;;;;;;7.80;95.67;101449.56;5015479;28;20666;-81
2023/04/17 04:54:21;;;;;;;16.57;15.20;;;;;;;7.72;96.33;101451.22;5015123;28;20211;-81
2023/04/17 04:56:49;;;;;;;17.97;16.13;;;;;;;7.76;95.82;101442.59;5015338;28;20204;-81
2023/04/17 04:59:15;;;;;;;18.07;16.20;;;;;;;7.73;96.34;101440.84;5035484;22;20238;-85
2023/04/17 05:01:43;;;;;;;16.07;14.87;;;;;;;7.76;96.57;101447.78;5014283;28;20211;-86
2023/04/17 05:04:09;;;;;;;16.67;15.00;;;;;;;7.74;96.15;101442.59;5014328;28;20211;-84
2023/04/17 05:06:36;;;;;;;17.63;16.07;;;;;;;7.80;96.37;101444.38;5014437;28;20665;-85
2023/04/17 05:09:03;;;;;;;16.83;15.40;;;;;;;7.69;96.50;101441.69;5014311;28;20230;-85
2023/04/17 05:11:30;;;;;;;16.77;15.00;;;;;;;7.79;96.75;101432.25;5014455;28;20585;-84
2023/04/17 05:13:56;;;;;;;16.77;15.50;;;;;;;7.82;96.64;101439.19;5014150;28;20234;-84
2023/04/17 05:16:22;;;;;;;16.93;15.33;;;;;;;7.85;96.66;101440.09;5014104;28;20355;-85
2023/04/17 05:18:49;;;;;;;17.33;15.83;;;;;;;7.81;96.75;101443.53;5013612;28;20226;-86
2023/04/17 05:21:15;;;;;;;17.70;16.10;;;;;;;7.73;97.51;101446.06;5014163;28;20210;-86
2023/04/17 05:23:41;;;;;;;18.17;16.37;;;;;;;7.70;96.24;101452.94;5013795;28;20630;-84
2023/04/17 05:26:09;;;;;;;18.53;16.70;;;;;;;7.71;95.81;101473.75;5013980;28;20211;-85
2023/04/17 05:28:35;;;;;;;17.07;15.77;;;;;;;7.80;94.53;101498.09;5013219;28;20226;-86
2023/04/17 05:31:02;;;;;;;16.90;15.40;;;;;;;7.83;93.58;101518.91;5013879;28;20205;-87
2023/04/17 05:33:28;;;;;;;16.97;15.60;;;;;;;7.88;93.22;101543.22;5014363;28;20204;-84
2023/04/17 05:35:54;;;;;;;16.93;15.43;;;;;;;7.95;92.67;101563.22;5014164;28;20747;-85
2023/04/17 05:38:21;;;;;;;17.20;15.60;;;;;;;7.91;92.49;101571.84;5015317;28;20269;-85
2023/04/17 05:40:47;;;;;;;17.17;15.63;;;;;;;8.01;92.19;101588.41;5016665;28;20208;-85
2023/04/17 05:43:14;;;;;;;17.80;15.40;;;;;;;8.04;91.29;101601.44;5016392;28;20705;-86
2023/04/17 05:45:41;;;;;;;16.33;15.03;;;;;;;8.05;91.18;101619.66;5016266;28;20265;-86
2023/04/17 05:48:07;;;;;;;16.53;15.13;;;;;;;8.03;91.49;101630.91;5016330;28;20226;-86
2023/04/17 05:50:34;;;;;;;15.93;14.53;;;;;;;8.14;90.71;101632.75;5015454;28;20210;-85
2023/04/17 05:53:00;;;;;;;16.47;15.03;;;;;;;8.11;90.32;101650.94;5015590;28;20203;-85
2023/04/17 05:55:26;;;;;;;16.60;15.20;;;;;;;8.18;90.36;101656.19;5014428;28;20208;-85
2023/04/17 05:57:53;;;;;;;16.30;14.80;;;;;;;8.26;89.86;101668.41;5014445;28;20587;-85
2023/04/17 06:00:21;;;;;;;15.27;13.97;;;;;;;8.30;89.92;101675.38;5014706;28;20273;-85
2023/04/17 06:02:48;;;;;;;16.33;14.87;;;;;;;8.34;89.97;101678.91;5014549;28;20258;-85
2023/04/17 06:05:15;;;;;;;17.20;15.43;;;;;;;8.37;90.49;101678.09;5014399;28;20210;-85
2023/04/17 06:07:41;;;;;;;16.90;15.43;;;;;;;8.40;90.60;101671.16;5013936;28;20321;-84
2023/04/17 06:10:08;;;;;;;17.00;15.37;;;;;;;8.44;91.06;101667.75;5013066;28;20314;-84
2023/04/17 06:12:35;;;;;;;15.93;14.57;;;;;;;8.51;90.81;101658.31;5014360;28;20230;-85
2023/04/17 06:15:02;;;;;;;16.73;15.10;;;;;;;8.51;90.10;101673.91;5015509;28;20213;-85
2023/04/17 06:17:30;;;;;;;16.57;15.20;;;;;;;8.53;90.20;101680.88;5014762;28;20214;-85
2023/04/17 06:19:56;;;;;;;16.73;15.20;;;;;;;8.49;90.15;101686.03;5015069;28;20208;-85
2023/04/17 06:22:23;;;;;;;16.57;15.10;;;;;;;8.49;90.03;101673.88;5014637;28;20202;-85
2023/04/17 06:24:49;;;;;;;16.63;15.40;;;;;;;8.47;90.94;101661.72;5015580;28;20207;-84
2023/04/17 06:27:15;;;;;;;16.27;14.67;;;;;;;8.58;90.63;101667.88;5015270;28;20669;-84
2023/04/17 06:29:42;;;;;;;15.87;14.37;;;;;;;8.63;89.17;101691.38;5015277;28;20284;-85
2023/04/17 06:32:08;;;;;;;15.87;14.67;;;;;;;8.70;88.93;101706.16;5018068;28;20232;-84
2023/04/17 06:34:36;;;;;;;15.80;14.50;;;;;;;8.75;88.01;101730.53;5018953;28;20261;-87
2023/04/17 06:37:02;;;;;;;16.00;14.50;;;;;;;8.79;86.91;101752.25;5018241;28;20211;-85
2023/04/17 06:39:30;;;;;;;16.10;14.67;;;;;;;8.82;86.50;101775.69;5017576;28;20223;-86
2023/04/17 06:41:57;;;;;;;16.17;14.80;;;;;;;8.90;86.17;101795.78;5018437;28;20214;-86
2023/04/17 06:44:23;;;;;;;16.10;14.53;;;;;;;8.92;84.91;101814.88;5018682;28;20215;-85
2023/04/17 06:46:51;;;;;;;15.87;14.47;;;;;;;8.95;84.61;101845.28;5017998;28;20211;-85
2023/04/17 06:49:17;;;;;;;15.80;14.27;;;;;;;8.95;84.43;101859.16;5015584;28;20290;-85
2023/04/17 06:51:46;;;;;;;15.37;14.00;;;;;;;8.91;84.43;101869.56;5018606;28;20211;-86
2023/04/17 06:54:12;;;;;;;15.63;14.17;;;;;;;8.99;84.33;101867.03;5028184;28;20223;-85
2023/04/17 06:56:39;;;;;;;15.40;14.00;;;;;;;9.03;83.91;101887.03;5020321;28;20219;-86
2023/04/17 06:59:06;;;;;;;15.30;14.00;;;;;;;9.05;83.89;101888.78;5019177;28;20611;-87
2023/04/17 07:01:33;;;;;;;14.73;13.47;;;;;;;9.12;83.14;101905.38;5019978;28;20231;-87
2023/04/17 07:04:00;;;;;;;14.77;13.50;;;;;;;9.08;83.27;101914.03;5019548;28;20741;-86
2023/04/17 07:06:28;;;;;;;15.80;14.20;;;;;;;9.13;82.87;101918.41;5019325;28;20213;-85
2023/04/17 07:08:56;;;;;;;15.20;13.90;;;;;;;9.20;82.16;101932.38;5018069;28;20278;-85
2023/04/17 07:11:22;;;;;;;14.60;13.17;;;;;;;9.23;81.67;101947.16;5019613;28;20212;-86
2023/04/17 07:13:49;;;;;;;14.60;13.40;;;;;;;9.26;81.39;101957.63;5020815;28;20198;-85
2023/04/17 07:16:15;;;;;;;14.73;13.47;;;;;;;9.31;81.53;101953.34;5020061;28;20265;-85
2023/04/17 07:18:41;;;;;;;14.77;13.27;;;;;;;9.31;81.56;101975.03;5019568;28;20248;-87
2023/04/17 07:21:08;;;;;;;15.70;14.17;;;;;;;9.30;81.16;101982.88;5020337;28;20234;-86
2023/04/17 07:23:34;;;;;;;14.67;13.33;;;;;;;9.33;81.48;101981.16;5034617;28;20205;-84
2023/04/17 07:26:02;;;;;;;15.53;13.57;;;;;;;9.39;80.94;101992.50;5044411;28;20224;-86
2023/04/17 07:28:28;;;;;;;15.47;14.00;;;;;;;9.39;80.43;102008.16;5042577;28;20231;-85
2023/04/17 07:30:56;;;;;;;14.53;13.13;;;;;;;9.40;80.42;101997.75;5044149;28;20215;-85
2023/04/17 07:33:23;;;;;;;16.03;13.80;;;;;;;9.46;80.15;102003.03;5043584;28;20215;-85
2023/04/17 07:35:49;;;;;;;15.27;13.87;;;;;;;9.47;79.96;102012.56;5043505;28;20257;-86
2023/04/17 07:38:15;;;;;;;14.57;13.23;;;;;;;9.30;79.52;102029.78;5042300;28;20796;-84
2023/04/17 07:40:43;;;;;;;15.37;14.07;;;;;;;9.20;80.33;102023.56;5032976;28;20204;-83
2023/04/17 07:43:10;;;;;;;15.57;14.13;;;;;;;9.25;81.18;102006.25;5021694;28;20211;-84
2023/04/17 07:45:37;;;;;;;15.67;14.00;;;;;;;9.38;81.12;101983.81;5027806;28;20257;-86
2023/04/17 07:48:03;;;;;;;15.27;13.87;;;;;;;9.49;80.71;101983.94;5038316;28;20213;-87
2023/04/17 07:50:30;;;;;;;15.10;13.73;;;;;;;9.50;80.71;101988.28;5041539;28;20256;-89
2023/04/17 07:52:56;;;;;;;14.90;13.17;;;;;;;9.59;80.37;101992.72;5041200;28;20228;-86
2023/04/17 07:55:22;;;;;;;13.53;12.47;;;;;;;9.58;79.88;102002.28;5039154;28;20202;-87
2023/04/17 07:57:50;;;;;;;14.97;13.87;;;;;;;9.54;79.60;102011.78;5034893;28;20232;-79
2023/04/17 08:00:20;;;;;;;16.23;13.97;;;;;;;9.60;79.28;102025.78;5011632;28;20193;-82
2023/04/17 08:02:46;;;;;;;16.47;14.97;;;;;;;9.58;79.61;102017.94;5016052;28;20196;-84
2023/04/17 08:05:12;;;;;;;17.00;15.40;;;;;;;9.58;80.68;102009.25;5007551;28;20201;-82
2023/04/17 08:07:40;;;;;;;16.80;15.20;;;;;;;9.65;81.92;101972.81;5007814;28;20577;-82
2023/04/17 08:10:07;;;;;;;15.70;14.30;;;;;;;9.78;80.21;101972.94;5009893;28;20228;-83
2023/04/17 08:12:33;;;;;;;14.87;13.57;;;;;;;9.81;79.69;101993.81;5018095;28;20338;-81
2023/04/17 08:14:59;;;;;;;15.27;13.90;;;;;;;9.60;79.77;102011.00;5008189;28;20264;-82
2023/04/17 08:17:29;;;;;;;15.23;13.70;;;;;;;9.51;80.14;102005.66;5010802;28;20193;-86
2023/04/17 08:19:56;;;;;;;15.37;14.17;;;;;;;9.12;82.42;101989.63;5009725;28;20675;-81
2023/04/17 08:22:23;;;;;;;15.23;13.73;;;;;;;9.00;82.17;101954.72;5014164;28;20211;-83
2023/04/17 08:24:53;;;;;;;15.90;14.20;;;;;;;9.06;83.05;101920.94;5011671;28;20243;-80
2023/04/17 08:27:19;;;;;;;15.07;13.80;;;;;;;9.10;83.32;101910.56;5008785;28;20213;-79
2023/04/17 08:29:46;;;;;;;14.40;13.27;;;;;;;9.17;81.92;101921.91;5007891;28;20702;-83
2023/04/17 08:32:12;;;;;;;15.43;13.97;;;;;;;9.38;80.96;101938.66;5007729;28;20201;-82
2023/04/17 08:34:40;;;;;;;15.03;13.63;;;;;;;9.42;80.62;101964.75;5005663;28;20860;-81
2023/04/17 08:37:06;;;;;;;14.90;13.60;;;;;;;9.32;78.50;102007.22;5004791;28;20200;-84
2023/04/17 08:39:32;;;;;;;14.57;13.17;;;;;;;9.47;79.31;102019.53;5005383;28;20217;-82
2023/04/17 08:42:00;;;;;;;15.50;14.10;;;;;;;9.48;78.29;102034.31;5009820;28;20200;-82
2023/04/17 08:44:27;;;;;;;14.10;12.80;;;;;;;9.70;77.79;102046.72;5008452;28;20234;-82
2023/04/17 08:46:56;;;;;;;14.97;13.53;;;;;;;9.87;77.72;102067.78;5009921;28;20215;-80
2023/04/17 08:49:23;;;;;;;14.37;13.17;;;;;;;10.02;76.77;102084.44;5006531;28;20230;-82
2023/04/17 08:51:50;;;;;;;14.80;13.33;;;;;;;10.10;76.52;102101.03;5009597;28;20235;-84
2023/04/17 08:54:18;;;;;;;14.13;12.83;;;;;;;10.05;74.93;102131.41;5014715;28;20750;-85
2023/04/17 08:56:45;;;;;;;14.17;12.97;;;;;;;10.09;73.93;102169.75;4999121;28;20238;-84
2023/04/17 08:59:11;;;;;;;14.60;13.40;;;;;;;10.24;74.99;102171.63;4996361;28;20240;-84
2023/04/17 09:01:37;;;;;;;14.90;13.70;;;;;;;10.34;73.87;102182.19;4995815;28;20295;-83
2023/04/17 09:04:04;;;;;;;14.77;13.43;;;;;;;10.43;74.39;102196.22;4305320;28;10000954;-84
2023/04/17 09:06:48;;;;;;;14.23;13.00;;;;;;;10.46;73.11;102214.53;4995662;28;20684;-85
2023/04/17 09:09:16;;;;;;;13.67;12.20;;;;;;;10.52;73.17;102212.88;4995915;28;20233;-86
2023/04/17 09:11:43;;;;;;;13.57;12.27;;;;;;;10.59;72.83;102234.69;4996277;28;20242;-85
2023/04/17 09:14:28;;;;;;;14.30;12.77;;;;;;;10.59;70.97;102246.88;4995914;28;20214;-88
2023/04/17 09:16:56;;;;;;;13.10;11.90;;;;;;;10.66;71.47;102275.69;4996045;28;20717;-84
2023/04/17 09:19:22;;;;;;;13.33;12.07;;;;;;;10.63;72.68;102249.53;4994682;28;20290;-85
2023/04/17 09:21:49;;;;;;;12.50;11.30;;;;;;;10.60;71.94;102267.75;4998873;28;20211;-84
2023/04/17 09:24:32;;;;;;;12.40;11.50;;;;;;;10.58;69.75;102310.38;5027244;28;20281;-85
2023/04/17 09:27:19;;;;;;;12.13;11.00;;;;;;;10.60;69.25;102322.59;5035504;28;20682;-86
2023/04/17 09:29:56;;;;;;;12.80;11.70;;;;;;;10.78;69.62;102344.56;5034796;28;20240;-83
2023/04/17 09:32:22;;;;;;;12.93;11.83;;;;;;;10.98;69.38;102336.94;5034171;28;20208;-86
2023/04/17 09:34:49;;;;;;;13.50;12.17;;;;;;;11.05;73.04;102296.94;5034465;28;20209;-84
2023/04/17 09:37:15;;;;;;;12.50;11.50;;;;;;;11.09;68.99;102302.19;5005988;28;20215;-85
2023/04/17 09:39:56;;;;;;;11.47;10.57;;;;;;;11.29;66.89;102362.50;5000422;28;20217;-84
2023/04/17 09:42:23;;;;;;;13.00;11.73;;;;;;;11.52;68.57;102377.53;4995386;28;20833;-83
2023/04/17 09:44:49;;;;;;;13.57;12.43;;;;;;;11.71;66.30;102408.22;4995387;28;20203;-84
2023/04/17 09:47:17;;;;;;;13.03;11.97;;;;;;;11.84;66.50;102418.75;4994965;28;20627;-87
2023/04/17 09:49:48;;;;;;;11.83;10.77;;;;;;;11.87;63.63;102447.56;4995027;28;20334;-84
2023/04/17 09:52:15;;;;;;;11.40;10.30;;;;;;;11.78;61.13;102503.31;5009301;28;20216;-83
2023/04/17 09:54:43;;;;;;;12.30;11.20;;;;;;;11.77;61.79;102566.97;5018820;28;20254;-85
2023/04/17 09:57:11;;;;;;;11.60;10.70;;;;;;;11.80;62.52;102568.75;5014548;28;20217;-84
2023/04/17 09:59:38;;;;;;;11.30;10.40;;;;;;;11.80;61.72;102581.84;5014236;28;20324;-84
2023/04/17 10:02:08;;;;;;;11.83;10.83;;;;;;;11.79;62.20;102582.69;5014046;28;20211;-83
2023/04/17 10:04:35;;;;;;;11.80;10.60;;;;;;;11.79;62.36;102582.69;5014633;28;20220;-85
2023/04/17 10:07:03;;;;;;;10.77;9.87;;;;;;;11.74;62.14;102582.63;5014933;28;20257;-83
2023/04/17 10:09:29;;;;;;;12.20;11.00;;;;;;;11.59;65.71;102558.91;5014979;28;20244;-83
2023/04/17 10:11:57;;;;;;;10.77;9.97;;;;;;;11.66;61.88;102521.50;5014773;28;20217;-83
2023/04/17 10:14:27;;;;;;;10.70;9.73;;;;;;;11.65;61.79;102544.16;5014039;28;20220;-84
2023/04/17 10:16:54;;;;;;;10.93;9.97;;;;;;;11.66;61.27;102560.75;5013711;28;20213;-84
2023/04/17 10:19:26;;;;;;;11.33;10.43;;;;;;;11.57;63.70;102573.72;5013662;28;20705;-85
2023/04/17 10:22:30;;;;;;;10.07;9.17;;;;;;;11.67;60.80;102525.88;5014110;28;20578;-84
2023/04/17 10:25:19;;;;;;;11.60;9.77;;;;;;;11.72;60.03;102587.84;5014213;28;20298;-86
2023/04/17 10:27:48;;;;;;;11.67;9.87;;;;;;;11.77;59.54;102603.59;5013904;28;20241;-84
2023/04/17 10:30:16;;;;;;;10.87;9.97;;;;;;;11.81;60.09;102614.97;5014408;28;20276;-83
2023/04/17 10:32:46;;;;;;;10.93;10.00;;;;;;;11.91;60.05;102619.47;5013626;28;20213;-83
2023/04/17 10:35:34;;;;;;;33.30;11.23;;;;;;;12.01;59.70;102616.13;5012633;28;20256;-85
2023/04/17 10:38:06;;;;;;;10.70;9.80;;;;;;;12.21;59.58;102610.16;5013223;28;20659;-83
2023/04/17 10:40:33;;;;;;;12.97;11.93;;;;;;;12.54;63.58;102612.22;5012537;28;20210;-87
2023/04/17 10:43:06;;;;;;;12.17;10.97;;;;;;;12.82;60.36;102567.84;5012342;28;20260;-84
2023/04/17 10:45:54;;;;;;;13.90;10.80;;;;;;;12.89;59.12;102586.25;5012947;28;20213;-84
2023/04/17 10:48:21;;;;;;;10.47;9.57;;;;;;;12.93;58.43;102589.78;5012217;28;20275;-84
2023/04/17 10:50:48;;;;;;;11.60;10.63;;;;;;;12.86;58.60;102625.56;5012642;28;20240;-83
2023/04/17 10:53:39;;;;;;;10.57;9.70;;;;;;;13.01;58.62;102603.81;5012646;28;20202;-86
2023/04/17 10:56:05;;;;;;;11.13;10.20;;;;;;;13.18;57.09;102618.75;5012037;28;20216;-85
2023/04/17 10:58:32;;;;;;;11.13;10.00;;;;;;;13.26;55.76;102649.41;5012317;28;20234;-83
2023/04/17 11:01:03;;;;;;;10.87;9.87;;;;;;;13.33;55.18;102671.31;5011936;28;20217;-83
2023/04/17 11:03:30;;;;;;;9.07;8.27;;;;;;;13.43;55.34;102683.59;5011262;28;20280;-83
2023/04/17 11:05:58;;;;;;;9.77;8.73;;;;;;;13.49;53.82;102699.38;5012178;28;20574;-83
2023/04/17 11:08:25;;;;;;;9.83;7.93;;;;;;;13.55;53.49;102737.91;5011992;28;20229;-83
2023/04/17 11:10:52;;;;;;;8.13;7.10;;;;;;;13.58;50.65;102764.19;5012328;28;20693;-83
2023/04/17 11:13:18;;;;;;;8.70;8.00;;;;;;;13.54;51.60;102834.97;5012882;28;20216;-87
2023/04/17 11:15:45;;;;;;;9.00;8.20;;;;;;;13.48;51.06;102844.56;5012680;28;20214;-85
2023/04/17 11:18:13;;;;;;;9.93;8.83;;;;;;;13.42;51.52;102841.91;5012768;28;20226;-85